createdAt,value
2022-10-15T00:01:53.727Z,225.38
2022-10-15T00:04:22.712Z,229.32
2022-10-15T00:06:51.843Z,231.80
2022-10-15T00:09:20.772Z,246.07
2022-10-15T00:11:49.955Z,230.95
2022-10-15T00:14:19.339Z,225.52
2022-10-15T00:16:48.564Z,226.82
2022-10-15T00:19:17.453Z,220.18
2022-10-15T00:21:46.813Z,223.30
2022-10-15T00:24:15.757Z,212.65
2022-10-15T00:26:45.006Z,216.38
2022-10-15T00:29:14.300Z,209.77
2022-10-15T00:31:43.696Z,204.30
2022-10-15T00:34:14.512Z,190.77
2022-10-15T00:36:43.727Z,217.50
2022-10-15T00:39:12.656Z,222.10
2022-10-15T00:41:46.130Z,228.18
2022-10-15T00:44:27.596Z,224.18
2022-10-15T00:47:18.864Z,225.48
2022-10-15T00:50:02.805Z,214.23
2022-10-15T00:52:59.379Z,221.98
2022-10-15T00:55:35.060Z,246.48
2022-10-15T00:58:18.004Z,243.98
2022-10-15T01:00:47.381Z,262.25
2022-10-15T01:03:18.990Z,265.20
2022-10-15T01:08:23.008Z,261.30
2022-10-15T01:11:03.095Z,275.13
2022-10-15T01:14:02.891Z,297.38
2022-10-15T01:17:10.330Z,275.90
2022-10-15T01:20:05.660Z,307.27
2022-10-15T01:22:48.997Z,311.08
2022-10-15T01:25:39.873Z,303.38
2022-10-15T01:28:45.120Z,269.63
2022-10-15T01:31:38.017Z,273.55
2022-10-15T01:37:10.636Z,236.55
2022-10-15T01:39:49.498Z,247.57
2022-10-15T01:42:28.233Z,220.70
2022-10-15T01:45:08.320Z,178.15
2022-10-15T01:47:58.485Z,192.35
2022-10-15T01:50:32.938Z,178.82
2022-10-15T01:53:06.398Z,162.27
2022-10-15T01:55:38.707Z,169.30
2022-10-15T01:58:12.256Z,153.73
2022-10-15T02:00:46.215Z,175.45
2022-10-15T02:03:17.230Z,192.75
2022-10-15T02:06:08.087Z,165.43
2022-10-15T02:08:57.151Z,183.82
2022-10-15T02:11:28.137Z,184.98
2022-10-15T02:14:21.137Z,179.45
2022-10-15T02:17:12.728Z,173.73
2022-10-15T02:20:01.759Z,194.77
2022-10-15T02:22:58.023Z,230.80
2022-10-15T02:25:29.779Z,248.32
2022-10-15T02:28:05.085Z,242.88
2022-10-15T02:30:40.153Z,268.05
2022-10-15T02:33:14.534Z,309.30
2022-10-15T02:35:47.543Z,321.60
2022-10-15T02:38:21.525Z,312.13
2022-10-15T02:40:53.158Z,344.67
2022-10-15T02:43:24.358Z,323.48
2022-10-15T02:45:54.424Z,308.75
2022-10-15T02:48:25.137Z,298.00
2022-10-15T02:50:56.808Z,265.10
2022-10-15T02:53:27.985Z,282.60
2022-10-15T02:55:58.985Z,220.65
2022-10-15T02:58:31.025Z,231.93
2022-10-15T03:01:02.221Z,224.48
2022-10-15T03:03:33.783Z,221.52
2022-10-15T03:06:04.585Z,205.95
2022-10-15T03:08:35.335Z,192.77
2022-10-15T03:11:08.052Z,187.27
2022-10-15T03:13:41.556Z,187.10
2022-10-15T03:16:13.733Z,162.30
2022-10-15T03:18:46.629Z,177.27
2022-10-15T03:21:18.710Z,161.03
2022-10-15T03:23:49.515Z,148.80
2022-10-15T03:26:25.437Z,150.75
2022-10-15T03:28:57.161Z,132.18
2022-10-15T03:31:39.128Z,120.63
2022-10-15T03:34:11.260Z,117.35
2022-10-15T03:36:42.237Z,113.90
2022-10-15T03:39:15.277Z,107.90
2022-10-15T03:41:46.253Z,115.00
2022-10-15T03:44:25.029Z,118.30
2022-10-15T03:47:06.406Z,119.88
2022-10-15T03:49:45.755Z,112.03
2022-10-15T03:52:16.770Z,101.70
2022-10-15T03:54:48.470Z,81.70
2022-10-15T03:57:22.613Z,102.35
2022-10-15T04:00:02.507Z,117.22
2022-10-15T04:02:42.184Z,104.32
2022-10-15T04:05:25.179Z,96.68
2022-10-15T04:08:01.618Z,102.13
2022-10-15T04:10:35.336Z,97.43
2022-10-15T04:13:05.965Z,77.22
2022-10-15T04:15:41.197Z,95.95
2022-10-15T04:18:15.267Z,102.50
2022-10-15T04:20:46.716Z,101.40
2022-10-15T04:23:22.649Z,104.53
2022-10-15T04:26:11.165Z,90.50
2022-10-15T04:28:41.575Z,97.90
2022-10-15T04:31:11.851Z,71.15
2022-10-15T04:33:41.887Z,71.90
2022-10-15T04:36:15.071Z,87.32
2022-10-15T04:39:06.917Z,80.68
2022-10-15T04:41:41.969Z,92.40
2022-10-15T04:44:14.891Z,78.70
2022-10-15T04:46:50.241Z,70.78
2022-10-15T04:49:30.277Z,75.82
2022-10-15T04:52:00.498Z,60.25
2022-10-15T04:54:38.858Z,81.95
2022-10-15T04:57:08.826Z,71.60
2022-10-15T04:59:37.812Z,81.68
2022-10-15T05:02:25.178Z,78.75
2022-10-15T05:05:11.010Z,70.07
2022-10-15T05:07:50.146Z,89.93
2022-10-15T05:10:19.301Z,65.40
2022-10-15T05:12:50.404Z,67.07
2022-10-15T05:15:29.766Z,61.80
2022-10-15T05:17:59.111Z,82.57
2022-10-15T05:20:36.705Z,97.85
2022-10-15T05:23:07.270Z,65.50
2022-10-15T05:25:37.801Z,119.17
2022-10-15T05:28:07.432Z,90.15
2022-10-15T05:30:36.783Z,83.60
2022-10-15T05:33:06.509Z,95.35
2022-10-15T05:35:35.450Z,88.03
2022-10-15T05:38:06.819Z,79.90
2022-10-15T05:40:36.051Z,124.70
2022-10-15T05:43:08.218Z,77.47
2022-10-15T05:45:37.432Z,70.70
2022-10-15T05:48:08.524Z,105.47
2022-10-15T05:50:38.316Z,139.13
2022-10-15T05:53:11.301Z,60.28
2022-10-15T05:55:44.188Z,80.32
2022-10-15T05:58:13.576Z,80.65
2022-10-15T06:00:42.537Z,74.80
2022-10-15T06:03:15.940Z,74.85
2022-10-15T06:05:45.089Z,88.90
2022-10-15T06:08:14.531Z,146.20
2022-10-15T06:10:43.921Z,81.50
2022-10-15T06:13:13.738Z,80.18
2022-10-15T06:15:46.705Z,88.33
2022-10-15T06:18:18.993Z,51.75
2022-10-15T06:20:54.194Z,65.75
2022-10-15T06:23:25.490Z,74.35
2022-10-15T06:25:54.727Z,73.85
2022-10-15T06:28:24.273Z,64.72
2022-10-15T06:30:53.820Z,50.65
2022-10-15T06:33:22.764Z,42.92
2022-10-15T06:35:51.899Z,40.20
2022-10-15T06:38:20.741Z,46.47
2022-10-15T06:40:49.940Z,52.45
2022-10-15T06:43:18.911Z,67.68
2022-10-15T06:45:48.093Z,43.35
2022-10-15T06:48:19.110Z,31.70
2022-10-15T06:50:48.466Z,37.13
2022-10-15T06:53:17.812Z,29.45
2022-10-15T06:55:47.298Z,30.10
2022-10-15T06:58:16.119Z,27.20
2022-10-15T07:00:45.272Z,62.00
2022-10-15T07:03:14.335Z,40.38
2022-10-15T07:05:43.655Z,47.70
2022-10-15T07:08:16.852Z,48.90
2022-10-15T07:10:49.141Z,40.55
2022-10-15T07:13:18.392Z,34.38
2022-10-15T07:15:48.284Z,44.17
2022-10-15T07:18:18.111Z,37.13
2022-10-15T07:20:47.511Z,27.98
2022-10-15T07:23:16.868Z,28.45
2022-10-15T07:25:45.950Z,25.70
2022-10-15T07:28:15.199Z,25.20
2022-10-15T07:30:44.137Z,33.50
2022-10-15T07:33:13.392Z,34.95
2022-10-15T07:35:52.460Z,30.30
2022-10-15T07:38:21.846Z,27.35
2022-10-15T07:40:50.737Z,47.88
2022-10-15T07:43:19.986Z,36.08
2022-10-15T07:45:50.629Z,60.90
2022-10-15T07:48:19.968Z,65.85
2022-10-15T07:50:48.882Z,35.17
2022-10-15T07:53:20.529Z,30.42
2022-10-15T07:55:59.789Z,53.85
2022-10-15T07:58:35.648Z,33.17
2022-10-15T08:01:05.766Z,32.03
2022-10-15T08:03:37.053Z,28.05
2022-10-15T08:06:08.432Z,26.38
2022-10-15T08:08:38.793Z,20.37
2022-10-15T08:11:09.919Z,33.05
2022-10-15T08:13:42.497Z,45.20
2022-10-15T08:16:13.572Z,39.00
2022-10-15T08:18:49.083Z,36.75
2022-10-15T08:21:18.305Z,34.80
2022-10-15T08:23:47.313Z,36.42
2022-10-15T08:26:16.594Z,36.15
2022-10-15T08:28:45.769Z,39.08
2022-10-15T08:31:15.787Z,22.00
2022-10-15T08:33:47.073Z,22.58
2022-10-15T08:36:17.187Z,41.22
2022-10-15T08:38:46.736Z,33.50
2022-10-15T08:41:39.246Z,36.10
2022-10-15T08:44:15.481Z,33.10
2022-10-15T08:46:50.540Z,41.20
2022-10-15T08:49:36.405Z,36.95
2022-10-15T08:52:17.232Z,39.25
2022-10-15T08:54:46.403Z,119.60
2022-10-15T08:57:47.409Z,24.33
2022-10-15T09:00:37.241Z,38.35
2022-10-15T09:03:27.259Z,31.20
2022-10-15T09:06:05.049Z,45.63
2022-10-15T09:09:04.943Z,24.30
2022-10-15T09:11:54.899Z,32.92
2022-10-15T09:14:34.802Z,34.47
2022-10-15T09:17:09.233Z,40.08
2022-10-15T09:19:39.609Z,39.33
2022-10-15T09:22:16.230Z,43.25
2022-10-15T09:24:47.354Z,29.25
2022-10-15T09:27:29.965Z,75.03
2022-10-15T09:30:24.470Z,49.03
2022-10-15T09:33:01.757Z,102.80
2022-10-15T09:35:38.536Z,23.38
2022-10-15T09:38:28.612Z,38.90
2022-10-15T09:41:20.678Z,32.75
2022-10-15T09:43:52.868Z,33.85
2022-10-15T09:46:24.267Z,42.55
2022-10-15T09:49:10.535Z,34.58
2022-10-15T09:51:56.474Z,50.47
2022-10-15T09:54:26.720Z,67.50
2022-10-15T09:56:58.253Z,37.47
2022-10-15T09:59:28.226Z,38.65
2022-10-15T10:02:04.905Z,42.33
2022-10-15T10:04:38.079Z,41.40
2022-10-15T10:07:09.425Z,33.33
2022-10-15T10:09:54.931Z,52.17
2022-10-15T10:12:29.525Z,39.92
2022-10-15T10:15:02.809Z,50.42
2022-10-15T10:17:35.122Z,43.63
2022-10-15T10:20:16.903Z,57.03
2022-10-15T10:22:56.012Z,36.35
2022-10-15T10:25:27.949Z,47.03
2022-10-15T10:28:15.459Z,35.92
2022-10-15T10:31:04.579Z,45.92
2022-10-15T10:33:51.724Z,37.90
2022-10-15T10:36:42.030Z,36.10
2022-10-15T10:39:16.492Z,63.75
2022-10-15T10:41:59.654Z,47.30
2022-10-15T10:44:40.417Z,40.20
2022-10-15T10:47:16.684Z,67.72
2022-10-15T10:49:56.884Z,27.58
2022-10-15T10:52:26.077Z,46.92
2022-10-15T10:55:15.282Z,31.70
2022-10-15T10:57:46.701Z,38.58
2022-10-15T11:00:25.312Z,30.00
2022-10-15T11:02:55.249Z,38.42
2022-10-15T11:05:29.978Z,38.63
2022-10-15T11:08:17.564Z,42.08
2022-10-15T11:10:54.200Z,47.33
2022-10-15T11:13:34.112Z,38.33
2022-10-15T11:16:11.209Z,48.97
2022-10-15T11:19:18.902Z,36.15
2022-10-15T11:22:24.241Z,67.32
2022-10-15T11:25:22.324Z,33.60
2022-10-15T11:28:10.466Z,47.78
2022-10-15T11:30:42.723Z,35.25
2022-10-15T11:33:23.744Z,34.58
2022-10-15T11:36:25.116Z,83.13
2022-10-15T11:39:15.985Z,108.18
2022-10-15T11:41:59.711Z,61.67
2022-10-15T11:44:51.251Z,49.10
2022-10-15T11:47:41.401Z,38.22
2022-10-15T11:50:25.188Z,61.50
2022-10-15T11:53:14.670Z,56.00
2022-10-15T11:56:06.603Z,48.72
2022-10-15T11:58:44.875Z,80.37
2022-10-15T12:01:20.956Z,40.53
2022-10-15T12:04:05.270Z,38.10
2022-10-15T12:06:42.361Z,59.38
2022-10-15T12:09:16.926Z,38.25
2022-10-15T12:12:06.884Z,42.08
2022-10-15T12:14:52.690Z,53.25
2022-10-15T12:17:44.960Z,56.63
2022-10-15T12:20:17.112Z,61.33
2022-10-15T12:22:49.316Z,52.85
2022-10-15T12:25:54.960Z,58.45
2022-10-15T12:29:03.186Z,54.55
2022-10-15T12:31:54.598Z,60.63
2022-10-15T12:34:42.468Z,73.95
2022-10-15T12:37:20.438Z,71.53
2022-10-15T12:40:00.878Z,62.05
2022-10-15T12:42:34.266Z,56.97
2022-10-15T12:45:10.051Z,55.13
2022-10-15T12:47:57.224Z,66.32
2022-10-15T12:50:32.223Z,86.78
2022-10-15T12:53:30.895Z,65.57
2022-10-15T12:56:12.221Z,70.82
2022-10-15T12:58:45.277Z,61.85
2022-10-15T13:01:17.446Z,57.00
2022-10-15T13:03:52.697Z,56.17
2022-10-15T13:06:22.071Z,55.05
2022-10-15T13:09:17.921Z,64.03
2022-10-15T13:12:01.481Z,56.28
2022-10-15T13:14:37.107Z,61.50
2022-10-15T13:17:21.275Z,67.28
2022-10-15T13:20:28.004Z,76.95
2022-10-15T13:23:28.980Z,69.22
2022-10-15T13:26:13.910Z,67.40
2022-10-15T13:28:44.861Z,60.22
2022-10-15T13:31:30.343Z,68.97
2022-10-15T13:34:05.878Z,77.68
2022-10-15T13:36:36.492Z,79.75
2022-10-15T13:39:09.182Z,73.97
2022-10-15T13:41:43.098Z,59.40
2022-10-15T13:44:24.020Z,68.90
2022-10-15T13:46:53.208Z,67.95
2022-10-15T13:49:23.190Z,68.35
2022-10-15T13:51:56.410Z,55.17
2022-10-15T13:54:30.169Z,62.38
2022-10-15T13:57:03.029Z,77.70
2022-10-15T13:59:33.431Z,70.60
2022-10-15T14:02:05.325Z,85.32
2022-10-15T14:04:35.281Z,93.90
2022-10-15T14:07:25.208Z,100.88
2022-10-15T14:09:54.792Z,105.15
2022-10-15T14:12:24.721Z,106.72
2022-10-15T14:14:54.012Z,132.48
2022-10-15T14:17:27.192Z,116.85
2022-10-15T14:20:27.314Z,123.45
2022-10-15T14:22:56.620Z,125.85
2022-10-15T14:25:27.119Z,150.93
2022-10-15T14:27:56.931Z,135.48
2022-10-15T14:30:33.116Z,142.20
2022-10-15T14:33:03.325Z,139.23
2022-10-15T14:35:39.611Z,123.43
2022-10-15T14:38:11.693Z,131.82
2022-10-15T14:40:40.967Z,127.30
2022-10-15T14:43:18.731Z,130.13
2022-10-15T14:45:54.001Z,111.72
2022-10-15T14:48:35.477Z,127.28
2022-10-15T14:51:08.346Z,133.40
2022-10-15T14:53:40.515Z,129.88
2022-10-15T14:56:20.508Z,113.68
2022-10-15T14:58:53.399Z,97.90
2022-10-15T15:01:22.861Z,123.57
2022-10-15T15:03:54.706Z,114.95
2022-10-15T15:06:24.110Z,113.82
2022-10-15T15:08:53.163Z,110.97
2022-10-15T15:11:26.910Z,122.97
2022-10-15T15:13:56.574Z,124.30
2022-10-15T15:16:25.407Z,149.70
2022-10-15T15:18:54.528Z,306.02
2022-10-15T15:21:25.422Z,132.52
2022-10-15T15:23:54.648Z,140.73
2022-10-15T15:26:24.716Z,147.38
2022-10-15T15:28:54.197Z,131.45
2022-10-15T15:31:23.060Z,142.80
2022-10-15T15:33:52.325Z,158.35
2022-10-15T15:36:23.697Z,165.98
2022-10-15T15:38:54.520Z,141.35
2022-10-15T15:41:25.894Z,135.10
2022-10-15T15:43:57.934Z,154.35
2022-10-15T15:46:27.368Z,125.57
2022-10-15T15:48:57.956Z,142.00
2022-10-15T15:51:33.060Z,131.40
2022-10-15T15:54:05.552Z,122.82
2022-10-15T15:56:36.126Z,116.35
2022-10-15T15:59:05.260Z,127.63
2022-10-15T16:01:34.396Z,127.13
2022-10-15T16:04:03.632Z,114.03
2022-10-15T16:06:32.594Z,102.40
2022-10-15T16:09:01.838Z,85.85
2022-10-15T16:11:31.042Z,92.90
2022-10-15T16:14:00.716Z,88.63
2022-10-15T16:16:29.576Z,88.70
2022-10-15T16:18:58.871Z,111.05
2022-10-15T16:21:28.651Z,101.22
2022-10-15T16:23:57.821Z,112.03
2022-10-15T16:26:27.655Z,105.97
2022-10-15T16:28:57.645Z,97.57
2022-10-15T16:31:30.533Z,103.10
2022-10-15T16:34:00.256Z,114.82
2022-10-15T16:36:29.461Z,89.80
2022-10-15T16:38:58.528Z,94.55
2022-10-15T16:41:27.897Z,100.53
2022-10-15T16:43:56.896Z,91.93
2022-10-15T16:46:26.038Z,112.95
2022-10-15T16:48:57.256Z,118.45
2022-10-15T16:51:27.014Z,95.40
2022-10-15T16:53:56.199Z,103.20
2022-10-15T16:56:27.976Z,104.40
2022-10-15T16:58:58.270Z,86.38
2022-10-15T17:01:30.492Z,102.82
2022-10-15T17:04:01.043Z,95.88
2022-10-15T17:06:32.216Z,104.43
2022-10-15T17:09:05.115Z,93.68
2022-10-15T17:11:40.389Z,106.45
2022-10-15T17:14:15.343Z,123.05
2022-10-15T17:16:53.179Z,109.97
2022-10-15T17:19:30.245Z,102.30
2022-10-15T17:22:02.626Z,114.80
2022-10-15T17:24:31.533Z,112.85
2022-10-15T17:27:00.713Z,110.55
2022-10-15T17:29:33.351Z,111.15
2022-10-15T17:32:03.943Z,100.35
2022-10-15T17:34:33.267Z,106.80
2022-10-15T17:37:03.042Z,97.97
2022-10-15T17:39:32.613Z,99.30
2022-10-15T17:42:01.618Z,101.47
2022-10-15T17:44:30.963Z,106.05
2022-10-15T17:46:59.863Z,107.82
2022-10-15T17:49:30.128Z,112.20
2022-10-15T17:51:59.281Z,95.20
2022-10-15T17:54:28.151Z,95.68
2022-10-15T17:56:57.548Z,83.20
2022-10-15T17:59:26.438Z,101.15
2022-10-15T18:01:59.972Z,86.63
2022-10-15T18:04:32.553Z,91.15
2022-10-15T18:07:01.647Z,88.25
2022-10-15T18:09:30.494Z,96.60
2022-10-15T18:12:01.579Z,103.03
2022-10-15T18:14:32.932Z,86.25
2022-10-15T18:17:02.189Z,83.20
2022-10-15T18:19:31.362Z,100.68
2022-10-15T18:22:00.579Z,91.50
2022-10-15T18:24:29.649Z,90.82
2022-10-15T18:27:01.031Z,76.37
2022-10-15T18:29:30.178Z,87.60
2022-10-15T18:31:59.080Z,82.25
2022-10-15T18:34:31.427Z,87.35
2022-10-15T18:37:01.313Z,85.70
2022-10-15T18:39:30.398Z,80.13
2022-10-15T18:41:59.523Z,70.72
2022-10-15T18:44:30.261Z,80.60
2022-10-15T18:46:59.455Z,79.30
2022-10-15T18:49:31.177Z,80.20
2022-10-15T18:52:06.465Z,84.90
2022-10-15T18:54:45.227Z,101.47
2022-10-15T18:57:14.345Z,98.63
2022-10-15T18:59:43.504Z,82.25
2022-10-15T19:02:12.398Z,104.05
2022-10-15T19:04:41.806Z,94.38
2022-10-15T19:07:10.914Z,104.47
2022-10-15T19:09:39.983Z,104.53
2022-10-15T19:12:09.530Z,103.75
2022-10-15T19:14:38.684Z,123.22
2022-10-15T19:17:08.842Z,135.82
2022-10-15T19:19:39.797Z,106.38
2022-10-15T19:22:08.953Z,85.90
2022-10-15T19:24:37.938Z,97.00
2022-10-15T19:29:36.719Z,80.72
2022-10-15T19:32:06.103Z,84.35
2022-10-15T19:34:36.545Z,88.53
2022-10-15T19:37:05.851Z,73.00
2022-10-15T19:39:38.036Z,90.30
2022-10-15T19:42:09.748Z,77.13
2022-10-15T19:44:39.066Z,91.80
2022-10-15T19:47:08.077Z,85.85
2022-10-15T19:49:37.238Z,96.18
2022-10-15T19:52:06.356Z,101.25
2022-10-15T19:54:38.702Z,94.85
2022-10-15T19:57:07.887Z,114.13
2022-10-15T19:59:39.823Z,101.13
2022-10-15T20:02:13.310Z,114.30
2022-10-15T20:04:42.427Z,97.22
2022-10-15T20:07:11.385Z,99.68
2022-10-15T20:09:43.456Z,103.30
2022-10-15T20:12:15.332Z,105.15
2022-10-15T20:14:44.605Z,119.95
2022-10-15T20:17:13.606Z,105.97
2022-10-15T20:19:42.890Z,104.18
2022-10-15T20:22:11.990Z,91.18
2022-10-15T20:24:41.407Z,93.10
2022-10-15T20:27:10.301Z,115.30
2022-10-15T20:29:39.646Z,95.28
2022-10-15T20:32:23.079Z,99.45
2022-10-15T20:34:59.432Z,112.45
2022-10-15T20:37:28.331Z,88.25
2022-10-15T20:42:31.402Z,104.07
2022-10-15T20:45:00.392Z,113.75
2022-10-15T20:47:29.393Z,78.93
2022-10-15T20:49:58.509Z,84.55
2022-10-15T20:52:27.973Z,90.22
2022-10-15T20:54:57.164Z,76.70
2022-10-15T20:57:26.512Z,91.50
2022-10-15T20:59:55.419Z,87.25
2022-10-15T21:02:24.887Z,87.03
2022-10-15T21:04:54.566Z,96.50
2022-10-15T21:07:25.678Z,93.18
2022-10-15T21:09:55.101Z,102.15
2022-10-15T21:12:24.233Z,106.78
2022-10-15T21:14:53.829Z,105.00
2022-10-15T21:17:22.885Z,105.47
2022-10-15T21:19:52.948Z,120.35
2022-10-15T21:22:22.473Z,114.60
2022-10-15T21:24:51.454Z,124.05
2022-10-15T21:27:20.549Z,124.28
2022-10-15T21:29:50.467Z,119.65
2022-10-15T21:32:19.598Z,112.10
2022-10-15T21:34:48.601Z,134.07
2022-10-15T21:37:17.890Z,117.03
2022-10-15T21:39:46.771Z,147.10
2022-10-15T21:42:16.162Z,110.47
2022-10-15T21:44:47.847Z,95.93
2022-10-15T21:47:17.524Z,90.03
2022-10-15T21:49:46.853Z,78.15
2022-10-15T21:52:16.197Z,88.38
2022-10-15T21:54:45.190Z,79.32
2022-10-15T21:57:14.275Z,88.30
2022-10-15T21:59:43.114Z,101.20
2022-10-15T22:02:12.760Z,94.15
2022-10-15T22:04:41.895Z,104.22
2022-10-15T22:07:12.304Z,84.45
2022-10-15T22:09:41.656Z,96.70
2022-10-15T22:12:10.583Z,94.13
2022-10-15T22:14:39.713Z,89.57
2022-10-15T22:17:08.792Z,77.75
2022-10-15T22:19:37.911Z,108.13
2022-10-15T22:22:06.766Z,91.38
2022-10-15T22:24:36.421Z,101.10
2022-10-15T22:27:05.609Z,101.65
2022-10-15T22:29:35.971Z,102.68
2022-10-15T22:32:05.040Z,91.35
2022-10-15T22:34:35.882Z,99.15
2022-10-15T22:37:05.379Z,101.53
2022-10-15T22:39:34.238Z,100.85
2022-10-15T22:42:03.814Z,107.43
2022-10-15T22:44:32.903Z,100.82
2022-10-15T22:47:02.238Z,106.30
2022-10-15T22:49:31.225Z,94.93
2022-10-15T22:52:00.394Z,112.03
2022-10-15T22:54:29.261Z,118.93
2022-10-15T22:56:58.524Z,97.38
2022-10-15T22:59:27.541Z,93.72
2022-10-15T23:01:56.579Z,97.03
2022-10-15T23:04:25.799Z,114.07
2022-10-15T23:06:55.028Z,95.22
2022-10-15T23:09:23.893Z,112.95
2022-10-15T23:11:53.017Z,107.80
2022-10-15T23:14:22.103Z,101.30
2022-10-15T23:16:51.378Z,108.38
2022-10-15T23:19:22.659Z,107.03
2022-10-15T23:21:54.077Z,119.22
2022-10-15T23:24:26.027Z,109.43
2022-10-15T23:26:55.286Z,113.97
2022-10-15T23:29:26.483Z,128.77
2022-10-15T23:31:56.184Z,116.10
2022-10-15T23:34:27.403Z,118.20
2022-10-15T23:36:56.514Z,104.15
2022-10-15T23:39:27.339Z,104.07
2022-10-15T23:41:57.081Z,108.15
2022-10-15T23:44:26.571Z,119.38
2022-10-15T23:46:56.320Z,115.90
2022-10-15T23:49:25.203Z,122.07
2022-10-15T23:51:54.357Z,115.60
2022-10-15T23:54:23.842Z,117.93
2022-10-15T23:56:53.153Z,114.25
2022-10-15T23:59:22.361Z,105.75
